createdAt,value
2023-07-04T00:01:19.394Z,11.00
2023-07-04T00:03:54.916Z,9.90
2023-07-04T00:06:25.096Z,9.00
2023-07-04T00:08:53.199Z,9.20
2023-07-04T00:11:21.542Z,9.90
2023-07-04T00:13:53.781Z,7.90
2023-07-04T00:16:22.084Z,9.00
2023-07-04T00:18:51.077Z,12.20
2023-07-04T00:21:20.143Z,9.70
2023-07-04T00:23:54.027Z,10.00
2023-07-04T00:26:24.773Z,7.40
2023-07-04T00:28:53.662Z,11.40
2023-07-04T00:31:25.360Z,10.20
2023-07-04T00:33:54.477Z,10.70
2023-07-04T00:36:22.610Z,10.50
2023-07-04T00:38:57.279Z,10.60
2023-07-04T00:41:29.975Z,9.30
2023-07-04T00:44:15.470Z,9.00
2023-07-04T00:47:06.083Z,10.80
2023-07-04T00:49:43.234Z,11.70
2023-07-04T00:52:15.433Z,8.10
2023-07-04T00:54:46.241Z,9.00
2023-07-04T00:57:15.920Z,10.30
2023-07-04T00:59:46.231Z,11.20
2023-07-04T01:02:16.936Z,9.90
2023-07-04T01:04:49.676Z,8.80
2023-07-04T01:07:24.077Z,10.80
2023-07-04T01:09:59.429Z,10.90
2023-07-04T01:12:31.292Z,10.70
2023-07-04T01:15:01.698Z,12.50
2023-07-04T01:17:31.350Z,11.10
2023-07-04T01:19:59.928Z,8.60
2023-07-04T01:22:50.138Z,9.80
2023-07-04T01:28:00.911Z,10.40
2023-07-04T01:30:30.621Z,11.90
2023-07-04T01:33:02.121Z,9.40
2023-07-04T01:35:30.379Z,9.90
2023-07-04T01:38:00.420Z,10.60
2023-07-04T01:40:31.471Z,10.50
2023-07-04T01:43:00.321Z,12.30
2023-07-04T01:45:28.216Z,9.80
2023-07-04T01:47:56.039Z,10.50
2023-07-04T01:50:25.006Z,10.10
2023-07-04T01:52:52.905Z,10.30
2023-07-04T01:55:21.169Z,12.90
2023-07-04T01:57:50.374Z,10.90
2023-07-04T02:00:20.043Z,11.30
2023-07-04T02:02:47.985Z,9.70
2023-07-04T02:05:20.787Z,9.60
2023-07-04T02:07:48.562Z,7.70
2023-07-04T02:10:16.473Z,13.10
2023-07-04T02:12:44.367Z,10.60
2023-07-04T02:15:13.352Z,8.10
2023-07-04T02:17:41.758Z,10.00
2023-07-04T02:20:10.387Z,12.70
2023-07-04T02:22:41.979Z,10.70
2023-07-04T02:25:10.685Z,12.10
2023-07-04T02:27:38.601Z,8.30
2023-07-04T02:30:07.245Z,12.00
2023-07-04T02:32:35.056Z,8.70
2023-07-04T02:35:02.861Z,9.80
2023-07-04T02:37:30.753Z,9.70
2023-07-04T02:39:58.716Z,13.70
2023-07-04T02:42:26.468Z,12.50
2023-07-04T02:44:54.376Z,11.50
2023-07-04T02:47:27.614Z,15.60
2023-07-04T02:49:55.802Z,9.30
2023-07-04T02:52:25.302Z,7.90
2023-07-04T02:54:53.505Z,11.30
2023-07-04T02:57:23.299Z,9.70
2023-07-04T02:59:51.124Z,9.30
2023-07-04T03:02:20.049Z,9.20
2023-07-04T03:04:49.132Z,11.60
2023-07-04T03:07:17.152Z,10.40
2023-07-04T03:09:45.060Z,10.10
2023-07-04T03:12:12.892Z,12.10
2023-07-04T03:14:40.711Z,9.90
2023-07-04T03:17:09.127Z,10.90
2023-07-04T03:19:37.151Z,9.80
2023-07-04T03:22:05.573Z,9.30
2023-07-04T03:24:36.116Z,12.30
2023-07-04T03:27:04.411Z,11.70
2023-07-04T03:29:32.192Z,16.70
2023-07-04T03:31:59.965Z,11.50
2023-07-04T03:34:27.884Z,10.20
2023-07-04T03:36:55.724Z,13.80
2023-07-04T03:39:23.607Z,11.00
2023-07-04T03:41:51.449Z,11.00
2023-07-04T03:44:19.230Z,11.50
2023-07-04T03:46:47.111Z,8.90
2023-07-04T03:49:14.970Z,10.30
2023-07-04T03:51:43.024Z,9.90
2023-07-04T03:54:11.292Z,12.10
2023-07-04T03:56:39.164Z,8.00
2023-07-04T03:59:07.025Z,9.50
2023-07-04T04:01:34.894Z,10.70
2023-07-04T04:04:02.937Z,11.60
2023-07-04T04:06:30.857Z,12.00
2023-07-04T04:08:58.761Z,9.90
2023-07-04T04:11:26.786Z,9.80
2023-07-04T04:13:54.804Z,7.30
2023-07-04T04:16:23.477Z,8.90
2023-07-04T04:18:52.496Z,8.20
2023-07-04T04:21:20.430Z,10.30
2023-07-04T04:23:48.287Z,7.80
2023-07-04T04:26:16.462Z,10.00
2023-07-04T04:28:44.233Z,9.40
2023-07-04T04:31:13.195Z,9.70
2023-07-04T04:33:41.216Z,12.80
2023-07-04T04:36:09.070Z,11.80
2023-07-04T04:38:39.497Z,8.40
2023-07-04T04:41:08.130Z,8.10
2023-07-04T04:43:36.070Z,11.10
2023-07-04T04:46:04.720Z,8.60
2023-07-04T04:48:36.726Z,11.00
2023-07-04T04:53:41.223Z,8.20
2023-07-04T04:56:09.898Z,9.60
2023-07-04T04:58:38.529Z,10.60
2023-07-04T05:01:17.800Z,10.50
2023-07-04T05:03:46.477Z,8.10
2023-07-04T05:06:14.471Z,9.30
2023-07-04T05:08:42.366Z,10.40
2023-07-04T05:11:10.371Z,8.00
2023-07-04T05:13:39.526Z,9.30
2023-07-04T05:16:11.271Z,6.80
2023-07-04T05:18:39.711Z,7.50
2023-07-04T05:21:10.554Z,11.60
2023-07-04T05:23:40.729Z,11.40
2023-07-04T05:26:29.502Z,9.70
2023-07-04T05:28:59.971Z,8.70
2023-07-04T05:31:29.492Z,9.80
2023-07-04T05:33:57.939Z,9.50
2023-07-04T05:36:29.828Z,9.30
2023-07-04T05:39:03.949Z,7.10
2023-07-04T05:41:33.709Z,9.80
2023-07-04T05:44:05.740Z,11.20
2023-07-04T05:46:34.544Z,9.60
2023-07-04T05:49:03.696Z,8.00
2023-07-04T05:51:32.480Z,6.30
2023-07-04T05:54:00.254Z,7.50
2023-07-04T05:56:31.746Z,9.10
2023-07-04T05:59:01.299Z,8.30
2023-07-04T06:01:29.194Z,8.00
2023-07-04T06:03:59.857Z,8.10
2023-07-04T06:06:29.389Z,7.30
2023-07-04T06:08:59.643Z,6.20
2023-07-04T06:11:31.582Z,8.00
2023-07-04T06:13:59.866Z,8.60
2023-07-04T06:16:27.733Z,6.90
2023-07-04T06:18:55.746Z,7.20
2023-07-04T06:21:38.401Z,6.80
2023-07-04T06:24:11.967Z,7.90
2023-07-04T06:26:39.956Z,6.30
2023-07-04T06:29:07.795Z,8.10
2023-07-04T06:31:35.667Z,7.20
2023-07-04T06:34:03.582Z,6.50
2023-07-04T06:36:31.963Z,8.30
2023-07-04T06:39:01.398Z,8.60
2023-07-04T06:41:29.321Z,5.80
2023-07-04T06:43:57.101Z,7.00
2023-07-04T06:46:25.109Z,7.00
2023-07-04T06:48:53.206Z,6.30
2023-07-04T06:51:21.840Z,7.30
2023-07-04T06:53:51.206Z,8.20
2023-07-04T06:56:21.848Z,8.30
2023-07-04T06:58:54.737Z,7.50
2023-07-04T07:01:28.975Z,6.30
2023-07-04T07:03:58.995Z,6.70
2023-07-04T07:06:28.021Z,6.40
2023-07-04T07:08:56.351Z,4.60
2023-07-04T07:11:26.268Z,7.60
2023-07-04T07:13:54.413Z,5.20
2023-07-04T07:16:24.904Z,6.50
2023-07-04T07:19:01.022Z,6.30
2023-07-04T07:21:28.950Z,8.00
2023-07-04T07:23:58.606Z,5.10
2023-07-04T07:26:29.457Z,5.10
2023-07-04T07:28:58.950Z,6.60
2023-07-04T07:31:33.858Z,5.10
2023-07-04T07:34:04.303Z,5.70
2023-07-04T07:36:42.066Z,4.50
2023-07-04T07:39:12.573Z,6.70
2023-07-04T07:41:44.683Z,5.70
2023-07-04T07:46:40.764Z,4.20
2023-07-04T07:49:08.920Z,5.60
2023-07-04T07:51:38.870Z,7.10
2023-07-04T07:54:07.991Z,4.10
2023-07-04T07:56:45.686Z,6.80
2023-07-04T07:59:13.978Z,4.50
2023-07-04T08:01:41.794Z,4.60
2023-07-04T08:04:10.747Z,4.90
2023-07-04T08:06:43.412Z,5.30
2023-07-04T08:09:14.522Z,4.50
2023-07-04T08:11:44.533Z,6.90
2023-07-04T08:14:14.830Z,6.70
2023-07-04T08:16:44.830Z,4.60
2023-07-04T08:19:13.842Z,5.10
2023-07-04T08:21:41.754Z,4.80
2023-07-04T08:24:13.990Z,6.40
2023-07-04T08:26:45.693Z,6.30
2023-07-04T08:29:15.393Z,7.20
2023-07-04T08:31:43.981Z,5.90
2023-07-04T08:34:12.282Z,5.90
2023-07-04T08:36:41.598Z,6.30
2023-07-04T08:39:10.857Z,6.00
2023-07-04T08:41:54.257Z,8.40
2023-07-04T08:44:23.926Z,5.30
2023-07-04T08:46:56.371Z,6.40
2023-07-04T08:49:42.618Z,5.20
2023-07-04T08:52:22.773Z,6.90
2023-07-04T08:54:51.971Z,9.60
2023-07-04T08:57:32.060Z,8.00
2023-07-04T09:00:08.154Z,7.20
2023-07-04T09:02:43.958Z,7.60
2023-07-04T09:05:25.362Z,9.10
2023-07-04T09:08:15.948Z,6.10
2023-07-04T09:10:48.321Z,7.70
2023-07-04T09:13:32.898Z,8.40
2023-07-04T09:16:06.349Z,8.00
2023-07-04T09:18:43.068Z,7.20
2023-07-04T09:21:14.073Z,8.40
2023-07-04T09:23:42.907Z,7.30
2023-07-04T09:26:12.414Z,8.10
2023-07-04T09:28:42.894Z,7.40
2023-07-04T09:31:19.603Z,7.80
2023-07-04T09:33:53.845Z,8.20
2023-07-04T09:36:29.441Z,9.10
2023-07-04T09:39:00.240Z,7.10
2023-07-04T09:41:31.268Z,8.50
2023-07-04T09:44:16.453Z,9.30
2023-07-04T09:46:52.910Z,7.60
2023-07-04T09:49:30.249Z,10.30
2023-07-04T09:52:03.853Z,8.60
2023-07-04T09:54:34.504Z,8.90
2023-07-04T09:57:24.156Z,9.40
2023-07-04T09:59:55.029Z,8.30
2023-07-04T10:02:26.836Z,8.30
2023-07-04T10:04:54.855Z,9.50
2023-07-04T10:07:25.044Z,8.50
2023-07-04T10:10:13.857Z,7.80
2023-07-04T10:12:46.261Z,7.70
2023-07-04T10:15:25.768Z,9.60
2023-07-04T10:17:53.898Z,9.80
2023-07-04T10:20:21.789Z,8.10
2023-07-04T10:22:54.426Z,6.90
2023-07-04T10:25:23.804Z,8.80
2023-07-04T10:27:57.251Z,8.00
2023-07-04T10:30:32.758Z,9.20
2023-07-04T10:33:05.660Z,9.50
2023-07-04T10:35:36.681Z,8.70
2023-07-04T10:38:13.983Z,9.10
2023-07-04T10:40:42.664Z,7.60
2023-07-04T10:43:14.525Z,9.30
2023-07-04T10:45:52.371Z,10.90
2023-07-04T10:48:32.404Z,8.50
2023-07-04T10:51:04.693Z,8.20
2023-07-04T10:53:32.438Z,7.50
2023-07-04T10:56:01.296Z,9.00
2023-07-04T10:58:34.581Z,9.50
2023-07-04T11:01:07.548Z,9.10
2023-07-04T11:03:35.547Z,9.90
2023-07-04T11:06:09.908Z,11.40
2023-07-04T11:08:40.317Z,9.00
2023-07-04T11:11:14.050Z,8.70
2023-07-04T11:13:54.578Z,8.90
2023-07-04T11:16:28.476Z,9.00
2023-07-04T11:19:07.838Z,9.60
2023-07-04T11:22:06.938Z,10.60
2023-07-04T11:24:54.981Z,10.30
2023-07-04T11:27:28.119Z,10.40
2023-07-04T11:30:04.149Z,9.70
2023-07-04T11:32:38.344Z,8.30
2023-07-04T11:35:12.211Z,11.40
2023-07-04T11:37:44.590Z,10.00
2023-07-04T11:40:19.811Z,9.20
2023-07-04T11:42:52.428Z,10.10
2023-07-04T11:45:26.348Z,12.20
2023-07-04T11:48:03.592Z,10.70
2023-07-04T11:50:35.895Z,8.90
2023-07-04T11:53:11.030Z,9.60
2023-07-04T11:55:39.013Z,12.70
2023-07-04T11:58:09.862Z,9.10
2023-07-04T12:00:38.629Z,8.90
2023-07-04T12:03:19.068Z,10.20
2023-07-04T12:06:33.582Z,9.80
2023-07-04T12:09:01.782Z,9.40
2023-07-04T12:11:44.853Z,11.70
2023-07-04T12:14:15.226Z,14.00
2023-07-04T12:16:45.760Z,10.70
2023-07-04T12:19:20.778Z,13.00
2023-07-04T12:24:37.762Z,11.00
2023-07-04T12:27:06.008Z,12.30
2023-07-04T12:32:20.680Z,19.50
2023-07-04T12:37:21.157Z,14.30
2023-07-04T12:39:50.279Z,12.70
2023-07-04T12:42:28.185Z,12.60
2023-07-04T12:44:56.503Z,12.70
2023-07-04T12:47:33.478Z,13.00
2023-07-04T12:50:04.195Z,14.00
2023-07-04T12:52:35.490Z,12.50
2023-07-04T12:55:05.050Z,10.90
2023-07-04T12:57:33.658Z,11.70
2023-07-04T13:00:20.493Z,15.20
2023-07-04T13:02:49.444Z,11.90
2023-07-04T13:05:18.452Z,11.30
2023-07-04T13:07:49.508Z,13.40
2023-07-04T13:10:26.759Z,13.50
2023-07-04T13:12:55.136Z,15.90
2023-07-04T13:15:31.237Z,12.90
2023-07-04T13:18:03.372Z,15.60
2023-07-04T13:20:34.126Z,15.00
2023-07-04T13:25:54.577Z,14.10
2023-07-04T13:34:28.868Z,15.40
2023-07-04T13:37:03.517Z,13.40
2023-07-04T13:42:03.990Z,15.20
2023-07-04T13:47:04.356Z,14.20
2023-07-04T13:49:32.131Z,13.50
2023-07-04T13:52:00.039Z,13.20
2023-07-04T13:54:28.447Z,12.30
2023-07-04T13:56:56.454Z,14.30
2023-07-04T14:07:15.088Z,14.00
2023-07-04T14:09:42.881Z,14.90
2023-07-04T14:12:11.136Z,16.60
2023-07-04T14:22:11.540Z,17.40
2023-07-04T14:24:39.656Z,13.50
2023-07-04T14:27:07.823Z,15.40
2023-07-04T14:29:35.864Z,14.20
2023-07-04T14:32:04.104Z,15.70
2023-07-04T14:34:32.330Z,19.50
2023-07-04T14:37:00.946Z,13.50
2023-07-04T14:39:29.190Z,18.40
2023-07-04T14:44:30.829Z,16.20
2023-07-04T14:46:58.797Z,17.30
2023-07-04T14:49:26.986Z,19.60
2023-07-04T14:51:54.778Z,19.60
2023-07-04T14:54:22.894Z,18.50
2023-07-04T14:56:51.699Z,17.30
2023-07-04T14:59:20.050Z,18.80
2023-07-04T15:01:47.991Z,19.00
2023-07-04T15:04:16.068Z,22.70
2023-07-04T15:06:43.886Z,17.60
2023-07-04T15:09:11.768Z,19.00
2023-07-04T15:11:39.718Z,18.60
2023-07-04T15:14:07.563Z,18.50
2023-07-04T15:16:35.516Z,17.70
2023-07-04T15:19:03.675Z,18.40
2023-07-04T15:21:31.504Z,18.00
2023-07-04T15:23:59.533Z,16.10
2023-07-04T15:26:28.626Z,18.40
2023-07-04T15:28:57.508Z,18.60
2023-07-04T15:31:26.279Z,16.20
2023-07-04T15:33:54.406Z,19.50
2023-07-04T15:36:22.559Z,16.60
2023-07-04T15:38:50.638Z,17.40
2023-07-04T15:41:20.404Z,18.80
2023-07-04T15:43:50.090Z,16.90
2023-07-04T15:46:18.266Z,18.30
2023-07-04T15:48:46.850Z,20.90
2023-07-04T15:51:20.604Z,19.40
2023-07-04T15:53:49.228Z,19.40
2023-07-04T15:56:20.064Z,18.20
2023-07-04T15:58:47.917Z,17.50
2023-07-04T16:01:16.009Z,16.10
2023-07-04T16:03:44.305Z,15.20
2023-07-04T16:06:12.603Z,17.50
2023-07-04T16:08:42.287Z,21.00
2023-07-04T16:11:14.490Z,18.70
2023-07-04T16:13:43.535Z,17.60
2023-07-04T16:16:12.391Z,18.90
2023-07-04T16:18:40.448Z,16.00
2023-07-04T16:21:08.688Z,15.50
2023-07-04T16:23:36.588Z,16.00
2023-07-04T16:26:04.826Z,18.90
2023-07-04T16:28:32.648Z,16.00
2023-07-04T16:31:05.997Z,18.50
2023-07-04T16:33:34.903Z,16.90
2023-07-04T16:36:05.466Z,16.30
2023-07-04T16:38:33.771Z,16.00
2023-07-04T16:41:02.651Z,17.90
2023-07-04T16:43:31.340Z,15.00
2023-07-04T16:45:59.381Z,18.30
2023-07-04T16:48:27.362Z,17.00
2023-07-04T16:50:58.961Z,17.00
2023-07-04T16:53:27.870Z,18.20
2023-07-04T16:55:58.028Z,17.40
2023-07-04T16:58:30.202Z,18.40
2023-07-04T17:01:00.712Z,16.00
2023-07-04T17:03:29.740Z,14.40
2023-07-04T17:06:03.023Z,15.70
2023-07-04T17:08:33.365Z,16.70
2023-07-04T17:11:06.129Z,17.80
2023-07-04T17:13:37.819Z,16.30
2023-07-04T17:16:09.810Z,14.80
2023-07-04T17:18:38.007Z,18.80
2023-07-04T17:21:06.591Z,15.80
2023-07-04T17:23:34.948Z,18.10
2023-07-04T17:26:03.082Z,18.30
2023-07-04T17:28:30.965Z,15.80
2023-07-04T17:31:00.452Z,17.90
2023-07-04T17:33:29.805Z,13.00
2023-07-04T17:36:10.206Z,14.90
2023-07-04T17:38:38.871Z,16.10
2023-07-04T17:41:17.402Z,14.20
2023-07-04T17:43:45.641Z,13.60
2023-07-04T17:46:13.960Z,14.80
2023-07-04T17:48:47.018Z,14.00
2023-07-04T17:51:28.359Z,14.20
2023-07-04T17:53:56.289Z,12.80
2023-07-04T17:56:27.966Z,13.60
2023-07-04T17:58:55.797Z,16.60
2023-07-04T18:01:26.401Z,14.20
2023-07-04T18:03:56.077Z,14.70
2023-07-04T18:06:24.059Z,13.20
2023-07-04T18:08:52.166Z,13.60
2023-07-04T18:11:25.466Z,14.20
2023-07-04T18:13:56.444Z,12.50
2023-07-04T18:16:26.341Z,13.50
2023-07-04T18:18:54.479Z,14.00
2023-07-04T18:21:24.420Z,13.20
2023-07-04T18:23:56.467Z,17.00
2023-07-04T18:28:55.310Z,11.10
2023-07-04T18:31:30.255Z,13.30
2023-07-04T18:34:03.580Z,13.20
2023-07-04T18:36:34.549Z,13.10
2023-07-04T18:39:03.696Z,14.80
2023-07-04T18:41:37.405Z,17.40
2023-07-04T18:44:07.059Z,13.10
2023-07-04T18:46:36.893Z,14.30
2023-07-04T18:49:05.591Z,14.70
2023-07-04T18:51:35.946Z,13.50
2023-07-04T18:54:04.408Z,14.30
2023-07-04T18:56:37.846Z,13.50
2023-07-04T18:59:05.768Z,12.50
2023-07-04T19:01:34.446Z,13.30
2023-07-04T19:04:02.854Z,13.80
2023-07-04T19:06:35.381Z,14.00
2023-07-04T19:09:04.995Z,15.30
2023-07-04T19:11:40.081Z,15.00
2023-07-04T19:14:19.114Z,13.20
2023-07-04T19:16:52.924Z,14.80
2023-07-04T19:19:33.070Z,15.40
2023-07-04T19:22:05.693Z,14.80
2023-07-04T19:24:35.102Z,12.70
2023-07-04T19:27:03.816Z,13.70
2023-07-04T19:29:32.401Z,13.60
2023-07-04T19:32:02.101Z,12.60
2023-07-04T19:34:30.404Z,14.40
2023-07-04T19:36:58.704Z,12.10
2023-07-04T19:39:28.422Z,17.20
2023-07-04T19:41:56.262Z,12.70
2023-07-04T19:44:25.312Z,15.60
2023-07-04T19:46:54.109Z,14.20
2023-07-04T19:49:22.213Z,12.80
2023-07-04T19:51:50.549Z,13.60
2023-07-04T19:54:19.046Z,11.90
2023-07-04T19:56:46.995Z,15.50
2023-07-04T19:59:14.742Z,13.80
2023-07-04T20:01:42.749Z,12.10
2023-07-04T20:04:10.727Z,13.70
2023-07-04T20:06:39.245Z,15.20
2023-07-04T20:09:07.372Z,13.20
2023-07-04T20:11:35.355Z,12.80
2023-07-04T20:14:03.936Z,13.40
2023-07-04T20:16:33.362Z,13.10
2023-07-04T20:19:01.725Z,12.50
2023-07-04T20:21:29.989Z,12.10
2023-07-04T20:23:57.973Z,14.00
2023-07-04T20:26:28.326Z,15.20
2023-07-04T20:28:59.363Z,17.10
2023-07-04T20:31:27.740Z,14.80
2023-07-04T20:33:56.104Z,17.20
2023-07-04T20:36:23.967Z,14.00
2023-07-04T20:38:52.894Z,16.10
2023-07-04T20:41:21.365Z,15.90
2023-07-04T20:43:49.184Z,15.00
2023-07-04T20:46:17.096Z,17.10
2023-07-04T20:48:45.289Z,19.40
2023-07-04T20:51:13.588Z,16.40
2023-07-04T20:53:41.837Z,18.30
2023-07-04T20:56:10.217Z,15.90
2023-07-04T20:58:38.376Z,14.00
2023-07-04T21:01:07.328Z,16.70
2023-07-04T21:03:38.189Z,17.50
2023-07-04T21:06:06.907Z,15.70
2023-07-04T21:08:35.763Z,15.60
2023-07-04T21:11:04.750Z,17.40
2023-07-04T21:13:34.803Z,14.50
2023-07-04T21:16:09.995Z,14.50
2023-07-04T21:18:39.184Z,15.20
2023-07-04T21:21:07.662Z,20.00
2023-07-04T21:23:36.623Z,16.30
2023-07-04T21:26:07.658Z,16.80
2023-07-04T21:28:36.632Z,17.80
2023-07-04T21:31:07.594Z,16.00
2023-07-04T21:33:36.317Z,16.90
2023-07-04T21:36:05.171Z,16.70
2023-07-04T21:38:35.428Z,16.60
2023-07-04T21:41:04.345Z,15.40
2023-07-04T21:43:32.397Z,16.80
2023-07-04T21:46:05.695Z,17.90
2023-07-04T21:48:33.743Z,16.20
2023-07-04T21:51:04.501Z,19.10
2023-07-04T21:53:33.089Z,16.10
2023-07-04T21:56:02.984Z,16.10
2023-07-04T21:58:31.252Z,16.90
2023-07-04T22:01:06.091Z,16.60
2023-07-04T22:03:36.306Z,16.40
2023-07-04T22:06:07.321Z,17.50
2023-07-04T22:08:36.655Z,17.60
2023-07-04T22:11:05.937Z,17.20
2023-07-04T22:13:35.233Z,14.80
2023-07-04T22:16:05.592Z,19.20
2023-07-04T22:18:34.153Z,17.00
2023-07-04T22:21:10.214Z,17.60
2023-07-04T22:23:39.515Z,18.20
2023-07-04T22:26:09.632Z,17.50
2023-07-04T22:28:38.290Z,15.70
2023-07-04T22:31:14.592Z,19.00
2023-07-04T22:34:00.146Z,16.90
2023-07-04T22:36:29.885Z,16.90
2023-07-04T22:38:59.082Z,15.50
2023-07-04T22:41:28.468Z,17.60
2023-07-04T22:43:56.396Z,18.00
2023-07-04T22:46:25.269Z,16.90
2023-07-04T22:48:53.601Z,17.50
2023-07-04T22:51:21.418Z,16.20
2023-07-04T22:53:50.844Z,17.00
2023-07-04T22:56:19.468Z,17.30
2023-07-04T22:58:47.942Z,18.30
2023-07-04T23:01:19.219Z,21.40
2023-07-04T23:03:49.105Z,17.40
2023-07-04T23:06:18.158Z,17.60
2023-07-04T23:08:46.246Z,18.30
2023-07-04T23:11:14.975Z,19.30
2023-07-04T23:13:42.941Z,18.20
2023-07-04T23:16:20.370Z,18.60
2023-07-04T23:18:49.667Z,19.40
2023-07-04T23:21:18.567Z,15.80
2023-07-04T23:23:48.082Z,17.20
2023-07-04T23:26:19.110Z,17.10
2023-07-04T23:28:47.145Z,19.20
2023-07-04T23:31:15.087Z,16.10
2023-07-04T23:33:45.504Z,20.30
2023-07-04T23:36:17.612Z,17.10
2023-07-04T23:38:48.561Z,17.10
2023-07-04T23:41:17.263Z,22.10
2023-07-04T23:43:45.877Z,19.50
2023-07-04T23:46:14.815Z,20.80
2023-07-04T23:48:44.016Z,17.70
2023-07-04T23:51:12.460Z,17.50
2023-07-04T23:53:40.337Z,18.60
2023-07-04T23:56:09.520Z,17.40
2023-07-04T23:58:37.424Z,17.10
